Guthrie, Kentucky
Current Conditions -  °F | °C
As of 6:52 AM on Tuesday 21 Oct 2014 (Local Time) from KCKV Reporting Station
Haze Haze  
Wind Chill: 47°   Ceiling: Unl
Heat Index: 47°   Visibility: 4mi
Dew Point: 46°   Wind: 3mph
Humidity: 97%   Direction: 270°W
Pressure: 30.04"   Gusts: NA
Location:  36.65°N, 87.17°W
Report Text: KCKV 211152Z AUTO 27003KT 4SM BR CLR 08/08 A3004 RMK AO2 SLP171 T00830078 10128 20083 53006
Loading
Personal Weather Stations






























Interactive Weather Map
Tropical Storm Tracking
New forecast layout! Learn more

10-Day Weather Forecast

Advertisements
Track Severe Weather on mobile